Time;durP1;ratioP1;P1;durP2;ratioP2;P2;SDS_P1;SDS_P2;PMS_P1;PMS_P2;Temp;Humidity;BMP_temperature;BMP_pressure;BME280_temperature;BME280_humidity;BME280_pressure;Samples;Min_cycle;Max_cycle;Signal;HPM_P1;HPM_P2
2021/07/06 00:01:10;;;;;;;5.50;5.10;;;18.90;99.90;;;;;;4955493;28;21197;-66
2021/07/06 00:03:39;;;;;;;5.67;5.27;;;18.90;99.90;;;;;;4942308;28;20630;-65
2021/07/06 00:06:04;;;;;;;5.50;5.00;;;18.90;99.90;;;;;;4969032;28;20204;-66
2021/07/06 00:08:34;;;;;;;5.00;4.70;;;18.90;99.90;;;;;;4966693;28;20613;-66
2021/07/06 00:11:02;;;;;;;5.23;4.83;;;18.90;99.90;;;;;;4965737;28;20183;-66
2021/07/06 00:13:30;;;;;;;4.80;4.50;;;18.90;99.90;;;;;;4944675;28;20690;-65
2021/07/06 00:15:58;;;;;;;5.53;5.03;;;18.90;99.90;;;;;;4963720;28;20723;-66
2021/07/06 00:18:28;;;;;;;5.10;4.80;;;18.90;99.90;;;;;;4953581;28;20717;-65
2021/07/06 00:20:59;;;;;;;4.97;4.67;;;18.90;99.90;;;;;;4965935;28;20640;-66
2021/07/06 00:23:27;;;;;;;5.07;4.77;;;18.90;99.90;;;;;;4964668;28;20681;-66
2021/07/06 00:26:00;;;;;;;5.60;5.20;;;18.90;99.90;;;;;;4960045;28;21092;-66
2021/07/06 00:28:28;;;;;;;4.93;4.63;;;18.90;99.90;;;;;;4960766;28;20594;-67
2021/07/06 00:30:58;;;;;;;4.53;4.23;;;18.80;99.90;;;;;;4961912;28;20676;-67
2021/07/06 00:33:37;;;;;;;4.20;3.90;;;18.80;99.90;;;;;;4964553;28;21029;-67
2021/07/06 00:36:03;;;;;;;5.23;4.23;;;18.90;99.90;;;;;;4959634;28;20649;-66
2021/07/06 00:38:29;;;;;;;4.70;4.40;;;18.90;99.90;;;;;;4965675;28;20649;-66
2021/07/06 00:40:57;;;;;;;4.17;3.80;;;18.90;99.90;;;;;;4966216;28;20626;-66
2021/07/06 00:43:23;;;;;;;4.43;4.13;;;18.90;99.90;;;;;;4967063;28;20224;-66
2021/07/06 00:45:54;;;;;;;4.70;4.30;;;18.90;99.90;;;;;;4960908;28;20996;-65
2021/07/06 00:48:19;;;;;;;4.27;3.97;;;18.90;99.90;;;;;;4966200;28;20629;-66
2021/07/06 00:50:45;;;;;;;4.00;3.70;;;18.90;99.90;;;;;;4967426;28;20615;-66
2021/07/06 00:53:13;;;;;;;3.90;3.70;;;18.90;99.90;;;;;;4971753;28;20242;-66
2021/07/06 00:55:43;;;;;;;4.60;4.20;;;18.90;99.90;;;;;;4968968;28;20219;-66
2021/07/06 00:58:14;;;;;;;4.83;4.53;;;18.90;99.90;;;;;;4945331;28;20800;-66
2021/07/06 01:00:40;;;;;;;4.90;4.50;;;18.80;99.90;;;;;;4964609;28;20594;-67
2021/07/06 01:03:06;;;;;;;4.40;4.00;;;18.80;99.90;;;;;;4967041;28;21184;-66
2021/07/06 01:05:34;;;;;;;4.03;3.83;;;18.80;99.90;;;;;;4941823;28;20199;-66
2021/07/06 01:08:03;;;;;;;4.53;3.63;;;18.90;99.90;;;;;;4962217;28;20849;-65
2021/07/06 01:10:28;;;;;;;4.13;3.77;;;18.80;99.90;;;;;;4967081;28;20659;-66
2021/07/06 01:12:55;;;;;;;3.70;3.50;;;18.90;99.90;;;;;;4945464;28;20623;-67
2021/07/06 01:15:27;;;;;;;4.13;3.70;;;18.90;99.90;;;;;;4965775;28;20197;-67
2021/07/06 01:18:09;;;;;;;4.20;3.80;;;18.80;99.90;;;;;;4963320;28;20954;-66
2021/07/06 01:20:39;;;;;;;3.93;3.73;;;18.80;99.90;;;;;;4949180;28;20630;-66
2021/07/06 01:23:10;;;;;;;4.10;3.80;;;18.80;99.90;;;;;;4962032;28;20617;-66
2021/07/06 01:25:40;;;;;;;5.50;4.07;;;18.70;99.90;;;;;;4942429;28;21185;-66
2021/07/06 01:28:06;;;;;;;4.10;3.80;;;18.70;99.90;;;;;;4960998;28;20641;-66
2021/07/06 01:30:35;;;;;;;3.97;3.67;;;18.70;99.90;;;;;;4963334;28;20621;-65
2021/07/06 01:33:03;;;;;;;3.90;3.70;;;18.60;99.90;;;;;;4963086;28;20716;-66
2021/07/06 01:35:29;;;;;;;4.50;3.50;;;18.60;99.90;;;;;;4942875;28;20662;-66
2021/07/06 01:38:08;;;;;;;4.07;3.70;;;18.60;99.90;;;;;;4948703;28;20618;-66
2021/07/06 01:40:34;;;;;;;3.87;3.57;;;18.70;99.90;;;;;;4965499;28;20262;-66
2021/07/06 01:43:06;;;;;;;4.93;4.10;;;18.70;99.90;;;;;;4967396;28;20717;-66
2021/07/06 01:45:42;;;;;;;4.50;4.13;;;18.70;99.90;;;;;;4962843;28;20187;-66
2021/07/06 01:48:07;;;;;;;3.93;3.73;;;18.70;99.90;;;;;;4947224;28;20621;-66
2021/07/06 01:50:39;;;;;;;4.10;3.70;;;18.70;99.90;;;;;;4962583;28;20614;-66
2021/07/06 01:53:25;;;;;;;4.13;3.73;;;18.70;99.90;;;;;;4967661;28;20254;-66
2021/07/06 01:55:54;;;;;;;4.00;3.70;;;18.70;99.90;;;;;;4967313;28;21031;-66
2021/07/06 01:58:26;;;;;;;3.77;3.53;;;18.80;99.90;;;;;;4966000;28;20602;-65
2021/07/06 02:00:57;;;;;;;4.53;4.00;;;18.80;99.90;;;;;;4963582;28;20959;-66
2021/07/06 02:03:26;;;;;;;4.00;3.70;;;18.80;99.90;;;;;;4962751;28;21212;-66
2021/07/06 02:05:58;;;;;;;3.93;3.63;;;18.80;99.90;;;;;;4967396;28;20618;-66
2021/07/06 02:08:26;;;;;;;3.90;3.70;;;18.80;99.90;;;;;;4958264;28;21212;-66
2021/07/06 02:10:55;;;;;;;4.13;3.83;;;18.70;99.90;;;;;;4951816;28;20626;-66
2021/07/06 02:13:26;;;;;;;4.33;3.97;;;18.70;99.90;;;;;;4947816;28;20645;-66
2021/07/06 02:16:00;;;;;;;4.00;3.70;;;18.70;99.90;;;;;;4960342;28;20686;-66
2021/07/06 02:18:28;;;;;;;4.83;4.00;;;18.70;99.90;;;;;;4948064;28;21264;-66
2021/07/06 02:21:00;;;;;;;4.13;3.83;;;18.70;99.90;;;;;;4965257;28;20682;-66
2021/07/06 02:23:27;;;;;;;4.73;4.03;;;18.70;99.90;;;;;;4961362;28;20642;-66
2021/07/06 02:25:53;;;;;;;4.87;4.37;;;18.70;99.90;;;;;;4960495;28;21165;-66
2021/07/06 02:28:20;;;;;;;3.93;3.63;;;18.70;99.90;;;;;;4964837;28;20610;-66
2021/07/06 02:30:49;;;;;;;4.90;4.27;;;18.60;99.90;;;;;;4946387;28;20615;-66
2021/07/06 02:33:15;;;;;;;4.60;4.23;;;18.60;99.90;;;;;;4946373;28;21295;-66
2021/07/06 02:35:42;;;;;;;6.00;4.17;;;18.70;99.90;;;;;;4943455;28;20724;-66
2021/07/06 02:38:11;;;;;;;4.43;4.03;;;18.60;99.90;;;;;;4958132;28;20614;-66
2021/07/06 02:40:36;;;;;;;4.53;3.90;;;18.70;99.90;;;;;;4963680;28;20657;-66
2021/07/06 02:43:03;;;;;;;3.83;3.53;;;18.70;99.90;;;;;;4963283;28;20729;-65
2021/07/06 02:45:29;;;;;;;4.33;4.03;;;18.70;99.90;;;;;;4963377;28;20293;-66
2021/07/06 02:47:59;;;;;;;5.13;4.00;;;18.70;99.90;;;;;;4960595;28;20653;-66
2021/07/06 02:50:27;;;;;;;4.63;4.27;;;18.60;99.90;;;;;;4962121;28;20690;-67
2021/07/06 02:52:56;;;;;;;3.80;3.60;;;18.70;99.90;;;;;;4942162;29;20619;-66
2021/07/06 02:55:21;;;;;;;3.83;3.53;;;18.60;99.90;;;;;;4964143;28;20672;-65
2021/07/06 02:57:47;;;;;;;4.63;4.23;;;18.70;99.90;;;;;;4948754;28;20630;-66
2021/07/06 03:00:18;;;;;;;5.03;3.63;;;18.70;99.90;;;;;;4960635;28;20179;-66
2021/07/06 03:02:49;;;;;;;4.10;3.80;;;18.70;99.90;;;;;;4961276;28;20179;-66
2021/07/06 03:05:17;;;;;;;6.03;3.87;;;18.70;99.90;;;;;;4966378;28;21181;-66
2021/07/06 03:07:45;;;;;;;4.30;4.00;;;18.70;99.90;;;;;;4944351;28;21245;-66
2021/07/06 03:10:19;;;;;;;4.13;3.87;;;18.70;99.90;;;;;;4963412;28;20741;-66
2021/07/06 03:12:45;;;;;;;4.40;4.00;;;18.70;99.90;;;;;;4945694;28;21026;-66
2021/07/06 03:15:17;;;;;;;3.70;3.50;;;18.70;99.90;;;;;;4964729;28;21109;-66
2021/07/06 03:17:43;;;;;;;4.20;3.87;;;18.70;99.90;;;;;;4962860;28;20599;-66
2021/07/06 03:20:15;;;;;;;5.47;4.33;;;18.70;99.90;;;;;;4964221;28;21051;-66
2021/07/06 03:22:44;;;;;;;3.97;3.77;;;18.70;99.90;;;;;;4962617;28;20618;-67
2021/07/06 03:25:11;;;;;;;4.23;4.03;;;18.80;99.90;;;;;;4939680;28;20654;-65
2021/07/06 03:27:37;;;;;;;4.40;4.10;;;18.70;99.90;;;;;;4962570;28;20657;-67
2021/07/06 03:30:16;;;;;;;5.90;3.50;;;18.80;99.90;;;;;;4955244;28;20650;-66
2021/07/06 03:32:50;;;;;;;3.70;3.50;;;18.70;99.90;;;;;;4962399;28;20650;-66
2021/07/06 03:35:17;;;;;;;3.97;3.57;;;18.70;99.90;;;;;;4969764;23;20902;-64
2021/07/06 03:37:43;;;;;;;4.07;3.50;;;18.70;99.90;;;;;;4975338;28;20990;-65
2021/07/06 03:40:12;;;;;;;4.30;4.00;;;18.70;99.90;;;;;;4980396;28;20707;-65
2021/07/06 03:42:43;;;;;;;4.23;3.90;;;18.70;99.90;;;;;;4960526;28;20179;-64
2021/07/06 03:45:20;;;;;;;4.37;3.80;;;18.70;99.90;;;;;;4960937;28;20854;-64
2021/07/06 03:47:49;;;;;;;4.27;3.97;;;18.80;99.90;;;;;;4953439;28;20703;-64
2021/07/06 03:50:27;;;;;;;4.33;4.10;;;18.80;99.90;;;;;;4958085;28;20637;-64
2021/07/06 03:52:58;;;;;;;4.83;4.40;;;18.80;99.90;;;;;;4959936;28;20649;-67
2021/07/06 03:55:30;;;;;;;5.23;4.83;;;18.80;99.90;;;;;;4958159;28;20646;-64
2021/07/06 03:57:56;;;;;;;4.47;4.17;;;18.70;99.90;;;;;;4958329;28;20703;-65
2021/07/06 04:00:26;;;;;;;4.57;4.27;;;18.70;99.90;;;;;;4958475;28;20642;-65
2021/07/06 04:02:55;;;;;;;4.63;4.20;;;18.80;99.90;;;;;;4962511;28;20619;-64
2021/07/06 04:05:21;;;;;;;4.83;4.53;;;18.80;99.90;;;;;;4972399;28;20721;-66
2021/07/06 04:07:52;;;;;;;5.20;4.80;;;18.80;99.90;;;;;;4965709;28;21130;-69
2021/07/06 04:10:18;;;;;;;4.10;3.90;;;18.80;99.90;;;;;;4963252;28;20215;-65
2021/07/06 04:12:49;;;;;;;5.00;4.70;;;18.80;99.90;;;;;;4961430;28;21141;-65
2021/07/06 04:15:15;;;;;;;4.60;4.20;;;18.80;99.90;;;;;;4955708;28;20703;-65
2021/07/06 04:17:41;;;;;;;4.63;4.33;;;18.80;99.90;;;;;;4958540;28;20654;-65
2021/07/06 04:20:17;;;;;;;4.97;4.60;;;18.80;99.90;;;;;;4940614;28;20666;-65
2021/07/06 04:22:45;;;;;;;4.80;4.50;;;18.80;99.90;;;;;;4958564;28;21373;-65
2021/07/06 04:25:16;;;;;;;5.10;4.60;;;18.90;99.90;;;;;;4957658;28;20685;-65
2021/07/06 04:27:43;;;;;;;5.10;4.80;;;18.90;99.90;;;;;;4954431;28;20665;-65
2021/07/06 04:30:09;;;;;;;4.83;4.47;;;18.90;99.90;;;;;;4955433;28;20710;-64
2021/07/06 04:32:35;;;;;;;5.33;4.43;;;18.90;99.90;;;;;;4929010;28;20627;-64
2021/07/06 04:35:00;;;;;;;7.50;4.93;;;18.90;99.90;;;;;;4942279;28;20728;-64
2021/07/06 04:37:28;;;;;;;5.97;5.47;;;19.00;99.90;;;;;;4943330;28;20207;-65
2021/07/06 04:39:55;;;;;;;5.03;4.63;;;19.00;99.90;;;;;;4961177;28;20193;-65
2021/07/06 04:42:21;;;;;;;4.63;4.33;;;19.10;99.90;;;;;;4956390;28;20636;-64
2021/07/06 04:44:49;;;;;;;5.40;4.90;;;19.20;99.90;;;;;;4962705;28;20711;-64
2021/07/06 04:47:18;;;;;;;4.43;4.10;;;19.20;99.90;;;;;;4946143;28;20198;-65
2021/07/06 04:49:46;;;;;;;5.40;5.00;;;19.20;99.90;;;;;;4958193;28;21025;-65
2021/07/06 04:52:14;;;;;;;4.63;4.27;;;19.20;99.90;;;;;;4959658;28;21197;-65
2021/07/06 04:54:40;;;;;;;4.87;4.47;;;19.20;99.90;;;;;;4943241;28;20741;-65
2021/07/06 04:57:11;;;;;;;4.40;4.00;;;19.30;99.90;;;;;;4962522;28;20767;-65
2021/07/06 04:59:36;;;;;;;4.90;4.37;;;19.30;99.90;;;;;;4958201;28;20301;-65
2021/07/06 05:02:05;;;;;;;5.20;4.70;;;19.30;99.90;;;;;;4958033;28;20663;-65
2021/07/06 05:04:32;;;;;;;4.97;4.57;;;19.30;99.90;;;;;;4944752;28;20222;-64
2021/07/06 05:06:58;;;;;;;4.90;4.23;;;19.30;99.90;;;;;;4939911;28;20630;-65
2021/07/06 05:09:31;;;;;;;7.27;5.07;;;19.30;99.90;;;;;;4961305;28;20625;-65
2021/07/06 05:11:56;;;;;;;5.10;4.70;;;19.40;99.90;;;;;;4958622;28;20198;-65
2021/07/06 05:14:22;;;;;;;4.93;4.53;;;19.40;99.90;;;;;;4959778;28;20661;-66
2021/07/06 05:16:47;;;;;;;5.10;4.70;;;19.40;99.90;;;;;;4958494;28;20577;-67
2021/07/06 05:19:15;;;;;;;4.57;4.17;;;19.50;99.90;;;;;;4959520;28;20199;-66
2021/07/06 05:21:41;;;;;;;5.50;5.10;;;19.60;99.90;;;;;;4957068;28;20635;-67
2021/07/06 05:24:12;;;;;;;6.80;4.37;;;19.60;99.90;;;;;;4958103;28;20660;-66
2021/07/06 05:26:39;;;;;;;5.30;4.90;;;19.70;99.90;;;;;;4943076;28;20286;-67
2021/07/06 05:29:07;;;;;;;4.97;4.57;;;19.60;99.90;;;;;;4951229;28;20631;-65
2021/07/06 05:31:33;;;;;;;5.40;5.00;;;19.60;99.90;;;;;;4959651;28;20773;-65
2021/07/06 05:34:01;;;;;;;4.73;4.43;;;19.70;99.90;;;;;;4956859;28;20653;-64
2021/07/06 05:36:26;;;;;;;5.27;4.77;;;19.70;99.90;;;;;;4937763;28;20241;-65
2021/07/06 05:38:53;;;;;;;4.87;4.47;;;19.80;99.90;;;;;;4953464;28;20618;-64
2021/07/06 05:41:19;;;;;;;4.20;4.00;;;19.90;99.90;;;;;;4922022;28;20561;-64
2021/07/06 05:43:45;;;;;;;4.73;4.43;;;19.90;99.90;;;;;;4950329;28;20681;-64
2021/07/06 05:46:11;;;;;;;4.43;4.03;;;20.00;99.90;;;;;;4954488;28;20206;-62
2021/07/06 05:48:37;;;;;;;4.90;4.60;;;20.00;99.90;;;;;;4947849;28;20642;-64
2021/07/06 05:51:03;;;;;;;4.70;4.40;;;20.00;99.90;;;;;;4938966;28;20716;-62
2021/07/06 05:53:28;;;;;;;4.70;4.30;;;20.00;99.90;;;;;;4953542;28;20191;-64
2021/07/06 05:55:54;;;;;;;5.37;4.73;;;20.00;99.90;;;;;;4952272;28;20215;-64
2021/07/06 05:58:19;;;;;;;4.93;4.53;;;20.00;99.90;;;;;;4953505;28;22254;-64
2021/07/06 06:00:45;;;;;;;4.70;4.30;;;20.10;99.90;;;;;;4952677;28;20689;-63
2021/07/06 06:03:11;;;;;;;4.80;4.30;;;20.10;99.90;;;;;;4938224;28;20291;-64
2021/07/06 06:05:41;;;;;;;4.70;4.30;;;20.20;99.90;;;;;;4944349;28;20583;-62
2021/07/06 06:08:07;;;;;;;3.90;3.70;;;20.20;99.90;;;;;;4953798;28;21028;-64
2021/07/06 06:10:33;;;;;;;4.93;4.30;;;20.20;99.90;;;;;;4954777;28;20698;-64
2021/07/06 06:12:58;;;;;;;4.43;4.13;;;20.20;99.90;;;;;;4949729;28;20645;-63
2021/07/06 06:15:24;;;;;;;5.17;4.20;;;20.10;99.90;;;;;;4954931;28;20293;-64
2021/07/06 06:17:50;;;;;;;4.93;4.53;;;20.10;99.90;;;;;;4956530;28;20605;-64
2021/07/06 06:20:16;;;;;;;5.77;3.90;;;20.20;99.90;;;;;;4930759;28;20222;-66
2021/07/06 06:22:42;;;;;;;4.40;4.10;;;20.20;99.90;;;;;;4939241;28;20245;-65
2021/07/06 06:25:09;;;;;;;4.20;3.90;;;20.30;99.90;;;;;;4952824;28;21189;-67
2021/07/06 06:27:34;;;;;;;4.23;3.83;;;20.40;99.90;;;;;;4959077;28;21254;-66
2021/07/06 06:30:00;;;;;;;4.13;3.83;;;20.60;99.90;;;;;;4959134;28;20633;-67
2021/07/06 06:32:25;;;;;;;5.33;3.63;;;20.60;99.90;;;;;;4961377;28;20195;-67
2021/07/06 06:34:51;;;;;;;4.50;4.07;;;20.70;99.90;;;;;;4957183;28;20227;-66
2021/07/06 06:37:18;;;;;;;3.73;3.50;;;20.80;99.90;;;;;;4960555;28;20255;-66
2021/07/06 06:39:46;;;;;;;4.43;3.80;;;21.00;99.90;;;;;;4956308;28;20614;-66
2021/07/06 06:42:12;;;;;;;3.30;3.10;;;21.00;99.90;;;;;;4952110;28;20629;-66
2021/07/06 06:44:38;;;;;;;3.50;3.30;;;21.10;99.90;;;;;;4954086;28;20666;-66
2021/07/06 06:47:04;;;;;;;2.80;2.67;;;21.20;99.90;;;;;;4937268;28;20276;-67
2021/07/06 06:49:30;;;;;;;3.50;3.20;;;21.20;99.90;;;;;;4951566;28;20652;-67
2021/07/06 06:51:55;;;;;;;4.27;3.63;;;21.30;99.90;;;;;;4949640;28;20638;-67
2021/07/06 06:54:21;;;;;;;3.40;3.20;;;21.40;99.90;;;;;;4952114;28;22530;-67
2021/07/06 06:56:46;;;;;;;3.33;3.13;;;21.40;99.90;;;;;;4952520;28;20300;-66
2021/07/06 06:59:13;;;;;;;3.30;3.10;;;21.50;99.90;;;;;;4954847;28;20218;-67
2021/07/06 07:01:39;;;;;;;4.20;2.93;;;21.50;99.90;;;;;;4965450;28;20243;-67
2021/07/06 07:04:05;;;;;;;3.20;3.00;;;21.70;99.90;;;;;;4970954;28;20653;-68
2021/07/06 07:06:33;;;;;;;3.70;3.17;;;21.80;99.90;;;;;;4955686;28;20191;-68
2021/07/06 07:08:58;;;;;;;2.70;2.50;;;21.80;99.90;;;;;;4953949;28;20623;-68
2021/07/06 07:11:24;;;;;;;2.93;2.73;;;21.80;99.90;;;;;;4953484;28;20645;-68
2021/07/06 07:13:49;;;;;;;4.10;3.20;;;21.80;99.90;;;;;;4951297;28;20219;-68
2021/07/06 07:16:15;;;;;;;4.70;3.30;;;21.90;99.90;;;;;;4951122;28;20265;-68
2021/07/06 07:18:41;;;;;;;10.83;3.53;;;21.90;99.90;;;;;;4936800;28;20261;-67
2021/07/06 07:21:07;;;;;;;3.00;2.80;;;21.90;99.90;;;;;;4951244;28;20207;-68
2021/07/06 07:23:32;;;;;;;2.50;2.40;;;22.00;99.90;;;;;;4956391;28;20669;-67
2021/07/06 07:25:58;;;;;;;3.10;2.90;;;22.00;99.90;;;;;;4954809;28;20278;-68
2021/07/06 07:28:23;;;;;;;3.10;2.57;;;22.00;99.90;;;;;;4953546;28;20214;-67
2021/07/06 07:30:49;;;;;;;3.60;3.30;;;22.00;99.90;;;;;;4958341;28;20255;-67
2021/07/06 07:33:14;;;;;;;2.97;2.73;;;22.00;99.90;;;;;;4953293;28;20203;-68
2021/07/06 07:35:40;;;;;;;4.30;2.80;;;22.00;99.90;;;;;;4951647;28;20336;-68
2021/07/06 07:38:06;;;;;;;2.97;2.77;;;22.00;99.90;;;;;;4952951;28;20226;-68
2021/07/06 07:40:31;;;;;;;3.10;2.80;;;22.10;99.90;;;;;;4953439;28;20282;-67
2021/07/06 07:42:57;;;;;;;2.80;2.60;;;22.00;99.90;;;;;;4953037;28;20531;-68
2021/07/06 07:45:22;;;;;;;3.37;3.10;;;22.10;99.90;;;;;;4955089;28;20379;-68
2021/07/06 07:47:48;;;;;;;2.80;2.60;;;22.10;99.90;;;;;;4953058;28;20834;-68
2021/07/06 07:50:14;;;;;;;3.27;2.67;;;22.30;99.90;;;;;;4950090;28;20198;-67
2021/07/06 07:52:40;;;;;;;3.77;2.57;;;22.40;99.90;;;;;;4932263;28;20187;-68
2021/07/06 07:55:07;;;;;;;3.77;2.70;;;22.40;99.90;;;;;;4936157;28;20681;-68
2021/07/06 07:57:32;;;;;;;2.47;2.30;;;22.60;99.90;;;;;;4940452;28;20341;-68
2021/07/06 07:59:58;;;;;;;2.80;2.60;;;22.60;99.90;;;;;;4948050;28;20725;-68
2021/07/06 08:02:24;;;;;;;3.93;2.60;;;22.60;99.90;;;;;;4927759;28;20203;-66
2021/07/06 08:04:51;;;;;;;2.40;2.30;;;22.70;99.90;;;;;;4953675;28;20391;-66
2021/07/06 08:07:17;;;;;;;2.20;2.10;;;22.90;99.90;;;;;;4950224;28;20761;-66
2021/07/06 08:09:43;;;;;;;4.80;2.20;;;22.90;99.90;;;;;;4934816;28;20634;-66
2021/07/06 08:12:10;;;;;;;3.00;2.50;;;23.00;99.90;;;;;;4955504;28;20630;-66
2021/07/06 08:14:36;;;;;;;2.43;2.33;;;23.00;99.90;;;;;;4953823;28;20700;-66
2021/07/06 08:17:02;;;;;;;2.50;2.30;;;23.20;99.90;;;;;;4938702;28;20769;-67
2021/07/06 08:19:28;;;;;;;3.40;2.60;;;23.20;99.90;;;;;;4937052;28;20649;-66
2021/07/06 08:21:54;;;;;;;2.20;2.00;;;23.30;99.90;;;;;;4952917;28;21578;-66
2021/07/06 08:24:20;;;;;;;2.20;2.10;;;23.30;99.90;;;;;;4955011;28;20642;-66
2021/07/06 08:26:46;;;;;;;1.97;1.87;;;23.40;99.90;;;;;;4944083;28;20638;-66
2021/07/06 08:29:12;;;;;;;2.40;1.80;;;23.50;99.90;;;;;;4955249;28;20262;-66
2021/07/06 08:31:38;;;;;;;2.17;1.93;;;23.60;99.90;;;;;;4955959;28;20626;-66
2021/07/06 08:34:04;;;;;;;3.77;1.90;;;23.70;99.90;;;;;;4939420;28;20665;-66
2021/07/06 08:36:30;;;;;;;2.30;2.10;;;23.70;99.90;;;;;;4966619;28;20306;-67
2021/07/06 08:38:56;;;;;;;2.23;2.10;;;23.80;99.90;;;;;;4960627;28;20195;-66
2021/07/06 08:41:22;;;;;;;2.53;2.33;;;23.90;99.90;;;;;;4959403;28;20634;-66
2021/07/06 08:43:49;;;;;;;2.20;2.10;;;24.00;99.90;;;;;;4956700;28;20234;-67
2021/07/06 08:46:19;;;;;;;2.13;2.03;;;24.10;99.90;;;;;;4938614;28;20708;-67
2021/07/06 08:48:47;;;;;;;3.83;2.30;;;24.20;99.90;;;;;;4954602;28;21045;-66
2021/07/06 08:51:17;;;;;;;4.43;2.10;;;24.30;99.90;;;;;;4954695;28;20630;-66
2021/07/06 08:53:43;;;;;;;4.53;2.30;;;24.50;99.90;;;;;;4942276;28;20638;-67
2021/07/06 08:56:09;;;;;;;2.70;2.50;;;24.60;99.90;;;;;;4957631;28;20663;-66
2021/07/06 08:58:35;;;;;;;2.23;2.00;;;24.70;99.90;;;;;;4938629;28;20179;-66
2021/07/06 09:01:01;;;;;;;2.47;2.10;;;24.70;99.90;;;;;;4960308;28;20920;-67
2021/07/06 09:03:54;;;;;;;2.27;2.07;;;24.80;99.90;;;;;;4942787;28;20719;-67
2021/07/06 09:06:30;;;;;;;2.63;2.30;;;24.80;99.90;;;;;;4957443;28;20611;-66
2021/07/06 09:09:14;;;;;;;3.57;2.00;;;24.90;99.90;;;;;;4954605;28;21113;-66
2021/07/06 09:11:45;;;;;;;2.53;2.37;;;24.80;99.90;;;;;;4956505;28;20626;-67
2021/07/06 09:14:11;;;;;;;2.70;2.20;;;24.80;99.90;;;;;;4944942;28;20664;-67
2021/07/06 09:16:36;;;;;;;2.53;2.30;;;24.80;99.90;;;;;;4955733;28;20646;-67
2021/07/06 09:19:22;;;;;;;2.63;2.33;;;24.80;99.90;;;;;;4938240;28;20209;-67
2021/07/06 09:22:09;;;;;;;2.40;2.20;;;24.90;99.90;;;;;;4957114;28;20180;-66
2021/07/06 09:24:35;;;;;;;2.60;2.40;;;24.90;99.90;;;;;;4941418;28;20653;-66
2021/07/06 09:27:23;;;;;;;3.50;3.20;;;24.80;99.90;;;;;;4957752;28;20633;-66
2021/07/06 09:30:19;;;;;;;2.93;2.73;;;24.70;99.90;;;;;;4952602;28;20264;-66
2021/07/06 09:32:53;;;;;;;3.23;2.93;;;24.50;99.90;;;;;;4956143;28;21123;-66
2021/07/06 09:35:23;;;;;;;2.90;2.60;;;24.60;99.90;;;;;;4954027;23;20708;-66
2021/07/06 09:38:05;;;;;;;6.87;3.93;;;24.70;99.90;;;;;;4949609;28;20645;-67
2021/07/06 09:40:42;;;;;;;3.33;2.80;;;24.80;99.90;;;;;;4960535;28;20965;-67
2021/07/06 09:43:20;;;;;;;2.80;2.50;;;24.90;99.90;;;;;;4967152;28;21155;-66
2021/07/06 09:46:11;;;;;;;2.70;2.33;;;25.10;99.90;;;;;;4972511;28;20741;-66
2021/07/06 09:48:43;;;;;;;3.70;2.33;;;25.20;99.90;;;;;;4972165;28;20602;-67
2021/07/06 09:51:16;;;;;;;2.67;2.47;;;25.30;99.90;;;;;;4980872;28;20638;-67
2021/07/06 09:53:46;;;;;;;2.70;2.50;;;25.40;99.90;;;;;;4987053;28;20616;-67
2021/07/06 09:56:15;;;;;;;2.30;2.20;;;25.50;99.90;;;;;;4982717;28;20739;-66
2021/07/06 09:59:00;;;;;;;2.47;2.33;;;25.60;99.90;;;;;;4980920;28;20613;-67
2021/07/06 10:01:26;;;;;;;2.07;1.97;;;25.80;99.90;;;;;;4966624;28;20615;-66
2021/07/06 10:03:54;;;;;;;3.03;2.00;;;25.90;99.90;;;;;;4984414;28;20609;-66
2021/07/06 10:06:22;;;;;;;2.30;2.10;;;26.00;99.90;;;;;;4979481;28;20745;-66
2021/07/06 10:08:52;;;;;;;4.07;2.10;;;26.10;99.90;;;;;;4978900;28;20621;-66
2021/07/06 10:11:18;;;;;;;2.00;1.90;;;26.10;99.90;;;;;;4985794;28;20589;-66
2021/07/06 10:13:44;;;;;;;2.40;2.20;;;26.20;99.90;;;;;;4979255;28;20626;-67
2021/07/06 10:16:10;;;;;;;2.40;2.07;;;26.20;99.90;;;;;;4977551;28;20668;-66
2021/07/06 10:18:36;;;;;;;1.97;1.87;;;26.30;99.90;;;;;;4983270;28;20930;-67
2021/07/06 10:21:04;;;;;;;3.40;1.97;;;26.40;99.90;;;;;;4988900;28;21194;-67
2021/07/06 10:23:32;;;;;;;3.87;1.93;;;26.50;99.90;;;;;;4986698;28;20435;-67
2021/07/06 10:25:59;;;;;;;1.90;1.77;;;26.60;99.90;;;;;;4982629;28;21262;-67
2021/07/06 10:28:30;;;;;;;2.57;1.57;;;26.60;99.90;;;;;;4979437;28;20609;-67
2021/07/06 10:30:56;;;;;;;2.13;1.97;;;26.60;99.90;;;;;;4968734;28;20628;-67
2021/07/06 10:33:34;;;;;;;1.90;1.80;;;26.60;99.90;;;;;;4964903;28;20684;-67
2021/07/06 10:36:03;;;;;;;1.80;1.60;;;26.60;99.90;;;;;;4973805;28;20574;-66
2021/07/06 10:38:29;;;;;;;2.20;1.80;;;26.60;99.90;;;;;;4972667;28;22862;-66
2021/07/06 10:40:54;;;;;;;1.83;1.73;;;26.50;99.90;;;;;;4976405;28;20636;-66
2021/07/06 10:43:48;;;;;;;2.60;1.87;;;26.40;99.90;;;;;;4960203;28;20194;-66
2021/07/06 10:46:19;;;;;;;1.80;1.70;;;26.40;99.90;;;;;;4975924;28;20702;-66
2021/07/06 10:48:56;;;;;;;1.83;1.73;;;26.30;99.90;;;;;;4976324;28;20622;-66
2021/07/06 10:51:39;;;;;;;1.90;1.80;;;26.20;99.90;;;;;;4972528;28;20605;-64
2021/07/06 10:54:19;;;;;;;2.90;2.10;;;26.20;99.90;;;;;;4975144;28;20628;-63
2021/07/06 10:56:57;;;;;;;2.63;1.70;;;26.10;99.90;;;;;;4975219;28;21668;-66
2021/07/06 10:59:31;;;;;;;3.87;1.83;;;25.90;99.90;;;;;;4981760;28;20589;-66
2021/07/06 11:02:03;;;;;;;3.50;2.10;;;26.00;99.90;;;;;;4973568;28;21083;-67
2021/07/06 11:04:39;;;;;;;3.73;2.07;;;26.00;99.90;;;;;;4979608;28;20633;-66
2021/07/06 11:07:05;;;;;;;2.50;2.00;;;25.90;99.90;;;;;;4981999;28;20711;-67
2021/07/06 11:09:32;;;;;;;2.10;1.90;;;25.90;99.90;;;;;;4983234;28;20621;-66
2021/07/06 11:12:25;;;;;;;2.47;1.97;;;25.80;99.90;;;;;;4965978;28;20636;-66
2021/07/06 11:14:56;;;;;;;2.10;1.80;;;25.80;99.90;;;;;;4981293;28;20626;-66
2021/07/06 11:17:39;;;;;;;5.97;1.90;;;25.80;99.90;;;;;;4982896;28;20655;-66
2021/07/06 11:20:10;;;;;;;1.70;1.60;;;25.80;99.90;;;;;;4987698;28;20795;-66
2021/07/06 11:22:40;;;;;;;4.80;1.93;;;25.80;99.90;;;;;;4987231;28;20616;-66
2021/07/06 11:25:35;;;;;;;1.93;1.80;;;25.80;99.90;;;;;;4983116;28;20648;-66
2021/07/06 11:28:12;;;;;;;2.10;2.00;;;25.80;99.90;;;;;;4985178;28;20612;-66
2021/07/06 11:30:43;;;;;;;1.90;1.80;;;25.90;99.90;;;;;;4985881;28;20613;-67
2021/07/06 11:33:17;;;;;;;4.43;2.17;;;25.90;99.90;;;;;;4989203;28;20614;-66
2021/07/06 11:35:47;;;;;;;4.23;1.97;;;25.90;99.90;;;;;;4985003;28;20666;-66
2021/07/06 11:38:23;;;;;;;3.93;2.50;;;25.80;99.90;;;;;;4989176;28;20656;-66
2021/07/06 11:40:57;;;;;;;2.27;1.80;;;25.80;99.90;;;;;;4987948;28;21007;-66
2021/07/06 11:43:24;;;;;;;3.20;2.23;;;25.70;99.90;;;;;;4982012;28;20604;-66
2021/07/06 11:45:55;;;;;;;2.57;2.10;;;25.70;99.90;;;;;;4969152;28;20648;-66
2021/07/06 11:48:24;;;;;;;2.40;2.30;;;25.50;99.90;;;;;;4987182;28;20595;-66
2021/07/06 11:50:50;;;;;;;1.83;1.73;;;25.40;99.90;;;;;;4982161;28;20628;-66
2021/07/06 11:53:24;;;;;;;3.00;2.10;;;25.50;99.90;;;;;;4982991;28;20647;-66
2021/07/06 11:55:50;;;;;;;4.90;2.47;;;25.40;99.90;;;;;;4986672;28;20633;-66
2021/07/06 11:58:21;;;;;;;2.07;1.97;;;25.40;99.90;;;;;;4980122;28;20624;-66
2021/07/06 12:00:46;;;;;;;2.50;2.20;;;25.40;99.90;;;;;;4972102;28;20239;-66
2021/07/06 12:03:29;;;;;;;2.63;2.43;;;25.20;99.90;;;;;;4983198;28;20729;-66
2021/07/06 12:06:00;;;;;;;3.00;2.80;;;25.20;99.90;;;;;;4985079;28;20297;-66
2021/07/06 12:08:29;;;;;;;4.80;2.17;;;25.10;99.90;;;;;;4978256;28;20612;-66
2021/07/06 12:11:02;;;;;;;5.27;2.30;;;25.10;99.90;;;;;;4961532;28;20660;-66
2021/07/06 12:13:35;;;;;;;2.77;2.10;;;25.00;99.90;;;;;;4980521;28;21207;-66
2021/07/06 12:16:03;;;;;;;2.17;1.90;;;24.90;99.90;;;;;;4978932;28;20668;-66
2021/07/06 12:18:31;;;;;;;2.63;1.83;;;24.90;99.90;;;;;;4978943;28;20652;-66
2021/07/06 12:21:00;;;;;;;3.20;2.07;;;24.70;99.90;;;;;;4981459;28;20716;-69
2021/07/06 12:23:26;;;;;;;3.67;1.97;;;24.60;99.90;;;;;;4975375;28;20613;-67
2021/07/06 12:25:54;;;;;;;1.83;1.70;;;24.50;99.90;;;;;;4967589;28;20978;-69
2021/07/06 12:28:20;;;;;;;3.00;1.87;;;24.40;99.90;;;;;;4977722;28;21156;-66
2021/07/06 12:31:17;;;;;;;1.90;1.70;;;24.20;99.90;;;;;;4978507;28;20629;-66
2021/07/06 12:33:44;;;;;;;2.20;1.73;;;24.20;99.90;;;;;;4979207;28;20709;-66
2021/07/06 12:36:13;;;;;;;1.90;1.80;;;24.10;99.90;;;;;;4972406;28;20690;-66
2021/07/06 12:38:39;;;;;;;3.50;1.53;;;24.20;99.90;;;;;;4958239;28;20700;-66
2021/07/06 12:41:16;;;;;;;2.30;2.10;;;24.20;99.90;;;;;;4986677;28;20611;-69
2021/07/06 12:43:41;;;;;;;1.57;1.47;;;24.20;99.90;;;;;;4964258;28;20629;-69
2021/07/06 12:46:07;;;;;;;1.80;1.70;;;24.20;99.90;;;;;;4976814;28;21043;-66
2021/07/06 12:48:35;;;;;;;2.17;1.63;;;24.00;99.90;;;;;;4983252;28;20197;-66
2021/07/06 12:51:09;;;;;;;1.93;1.47;;;24.00;99.90;;;;;;4986619;28;20191;-67
2021/07/06 12:53:34;;;;;;;1.60;1.50;;;23.90;99.90;;;;;;4981465;28;20629;-66
2021/07/06 12:56:00;;;;;;;2.03;1.50;;;24.00;99.90;;;;;;4964240;28;21206;-67
2021/07/06 12:58:28;;;;;;;2.10;1.23;;;24.00;99.90;;;;;;4967199;28;20204;-66